Latest Weather Observations for Eucla

IDW60801

Issued at 9:43 am WST Tuesday 22 September 2020 (issued every 10 minutes, with the page automatically refreshed every 10 minutes)

About weather observations | Map of weather stations | Latest weather observations for WA | Other Formats
Station Details ID: 011003 Name: EUCLA Lat: -31.68 Lon: 128.90 Height: 93.1 m
Data from the previous 72 hours. | See also: Recent months at Eucla
Date/Time
WST
Temp
°C
App
Temp
°C
Dew
Point
°C
Rel
Hum
%
Delta-T
°C
Wind Press
QNH
hPa
Press
MSL
hPa
Rain since
9am
mm
Dir  Spd
km/h
Gust
km/h
Spd
kts
Gust
kts
22/09:30am 16.9 12.5 6.7 51 5.0 WSW 19 28 10 15 1021.0 1020.9 0.0
22/09:00am 15.8 11.9 7.3 57 4.2 WSW 17 26 9 14 1021.1 1021.0 0.0
22/08:30am 15.7 12.3 7.5 58 4.1 W 15 22 8 12 1021.0 1020.9 0.0
22/08:00am 15.0 11.3 7.8 62 3.6 WNW 17 24 9 13 1020.8 1020.7 0.0
22/07:30am 13.7 10.4 7.9 68 2.9 WNW 15 24 8 13 1020.6 1020.5 0.0
22/07:00am 12.2 8.3 7.1 71 2.5 WNW 17 26 9 14 1020.2 1020.1 0.0
22/06:30am 10.4 6.7 6.5 77 1.8 WNW 15 26 8 14 1019.7 1019.6 0.0
22/06:00am 9.0 5.7 6.3 83 1.2 NW 13 22 7 12 1019.2 1019.1 0.0
22/05:30am 8.1 5.1 5.9 86 1.0 NW 11 17 6 9 1018.8 1018.8 0.0
22/05:00am 8.5 5.5 6.0 84 1.1 WNW 11 17 6 9 1018.3 1018.3 0.0
22/04:30am 8.1 5.0 5.7 85 1.1 WNW 11 17 6 9 1018.1 1018.1 0.0
22/04:00am 8.1 5.4 5.7 85 1.1 WNW 9 15 5 8 1018.0 1018.0 0.0
22/03:30am 8.5 5.5 5.8 83 1.2 WNW 11 15 6 8 1017.5 1017.5 0.0
22/03:00am 9.6 6.6 6.0 78 1.7 WNW 11 15 6 8 1017.3 1017.3 0.0
22/02:30am 9.4 6.0 5.9 79 1.6 WNW 13 19 7 10 1017.4 1017.4 0.0
22/02:00am 9.6 6.6 6.1 79 1.6 WNW 11 17 6 9 1017.3 1017.3 0.0
22/01:30am 9.2 5.8 5.9 80 1.5 WNW 13 19 7 10 1017.4 1017.4 0.0
22/01:00am 8.9 5.9 6.0 82 1.3 WNW 11 15 6 8 1017.5 1017.5 0.0
22/12:30am 9.5 6.9 6.2 80 1.5 W 9 13 5 7 1017.4 1017.4 0.0
22/12:00am 9.3 6.7 6.2 81 1.4 WNW 9 11 5 6 1017.5 1017.5 0.0
 
Date/Time
WST
Temp
°C
App
Temp
°C
Dew
Point
°C
Rel
Hum
%
Delta-T
°C
Wind Press
QNH
hPa
Press
MSL
hPa
Rain since
9am
mm
Dir  Spd
km/h
Gust
km/h
Spd
kts
Gust
kts
21/11:30pm 9.9 7.4 6.6 80 1.5 WNW 9 11 5 6 1017.7 1017.7 0.0
21/11:00pm 11.4 9.0 7.1 75 2.1 WNW 9 13 5 7 1017.8 1017.8 0.0
21/10:30pm 11.8 9.1 7.3 74 2.2 W 11 17 6 9 1017.7 1017.7 0.0
21/10:00pm 11.8 8.4 7.5 75 2.1 WSW 15 22 8 12 1017.8 1017.8 0.0
21/09:30pm 11.6 8.5 7.3 75 2.1 WSW 13 20 7 11 1017.9 1017.9 0.0
21/09:00pm 11.6 8.5 7.3 75 2.1 WSW 13 19 7 10 1017.9 1017.9 0.0
21/08:30pm 11.8 8.8 7.5 75 2.1 WSW 13 19 7 10 1017.8 1017.8 0.0
21/08:00pm 11.8 8.8 7.7 76 2.0 WSW 13 20 7 11 1017.8 1017.8 0.0
21/07:30pm 12.1 9.2 8.2 77 1.9 WSW 13 20 7 11 1017.7 1017.7 0.0
21/07:00pm 12.8 9.6 8.3 74 2.2 SW 15 22 8 12 1017.4 1017.4 0.0
21/06:30pm 13.2 9.6 8.3 72 2.4 SW 17 30 9 16 1017.0 1017.0 0.0
21/06:00pm 13.6 9.1 8.4 71 2.6 SW 22 37 12 20 1016.4 1016.3 0.0
21/05:30pm 13.6 9.6 8.4 71 2.6 SW 19 30 10 16 1015.9 1015.8 0.0
21/05:00pm 14.2 9.3 8.4 68 2.9 SW 24 35 13 19 1015.5 1015.4 0.0
21/04:30pm 14.7 9.3 8.2 65 3.3 SW 26 39 14 21 1015.2 1015.1 0.0
21/04:00pm 15.4 9.2 7.9 61 3.8 SW 30 41 16 22 1014.7 1014.6 0.0
21/03:30pm 15.8 10.5 8.5 62 3.7 SW 26 41 14 22 1014.2 1014.1 0.0
21/03:07pm 15.7 10.3 9.4 66 3.3 SW 28 46 15 25 1014.0 1013.9 0.0
21/03:00pm 16.1 10.3 9.3 64 3.5 SW 30 46 16 25 1013.8 1013.7 0.0
21/02:50pm 16.5 11.0 9.2 62 3.8 SW 28 50 15 27 1013.7 1013.6 0.0
21/02:30pm 15.2 10.1 9.1 67 3.1 SW 26 37 14 20 1013.5 1013.4 0.0
21/02:11pm 14.2 9.0 10.4 78 2.0 SW 28 46 15 25 1013.4 1013.3 0.0
21/02:00pm 15.7 9.7 8.7 63 3.6 SSW 30 44 16 24 1013.2 1013.1 0.0
21/01:30pm 18.4 14.0 8.9 54 5.0 SW 22 37 12 20 1013.2 1013.1 0.0
21/01:00pm 15.6 10.2 9.5 67 3.2 SW 28 43 15 23 1013.3 1013.2 0.0
21/12:30pm 16.7 12.3 8.9 60 4.0 SW 22 41 12 22 1013.2 1013.1 0.0
21/12:01pm 17.0 11.2 7.9 55 4.6 WSW 28 46 15 25 1013.2 1013.1 0.0
21/12:00pm 17.0 11.6 7.9 55 4.6 WSW 26 46 14 25 1013.2 1013.1 0.0
21/11:30am 17.5 11.8 8.4 55 4.7 WSW 28 46 15 25 1013.2 1013.1 0.0
21/11:29am 17.7 12.2 9.1 57 4.5 WSW 28 46 15 25 1013.3 1013.2 0.0
21/11:00am 15.3 10.6 9.2 67 3.1 SW 24 39 13 21 1013.2 1013.1 0.0
21/10:30am 18.0 11.9 6.8 48 5.6 WSW 28 50 15 27 1013.0 1012.9 0.0
21/10:11am 17.5 11.2 7.3 51 5.1 WSW 30 50 16 27 1013.0 1012.9 0.0
21/10:00am 17.3 11.3 7.1 51 5.1 WSW 28 44 15 24 1013.1 1013.0 0.0
21/09:41am 16.2 10.0 7.7 57 4.3 WSW 30 61 16 33 1013.1 1013.0 0.0
21/09:30am 16.8 10.6 6.3 50 5.2 WSW 28 43 15 23 1013.1 1013.0 0.0
21/09:00am 16.0 9.6 7.0 55 4.5 WSW 30 48 16 26 1013.1 1013.0 0.0
21/08:41am 16.0 9.1 6.4 53 4.7 WSW 32 54 17 29 1012.9 1012.8 0.0
21/08:30am 16.2 9.7 6.3 52 4.8 WSW 30 41 16 22 1012.6 1012.5 0.0
21/08:00am 15.4 8.8 6.2 54 4.5 WSW 30 50 16 27 1012.3 1012.2 0.0
21/07:42am 14.6 8.3 5.7 55 4.3 W 28 46 15 25 1012.1 1012.0 0.0
21/07:30am 14.8 8.9 5.9 55 4.3 W 26 44 14 24 1011.9 1011.8 0.0
21/07:00am 13.8 7.0 5.2 56 4.0 W 30 48 16 26 1011.4 1011.3 0.0
21/06:30am 13.0 6.5 4.9 58 3.8 WNW 28 48 15 26 1010.9 1010.8 0.0
21/06:22am 12.7 5.8 4.7 58 3.7 WNW 30 48 16 26 1010.8 1010.7 0.0
21/06:00am 12.2 5.9 3.9 57 3.7 WNW 26 41 14 22 1010.3 1010.2 0.0
21/05:30am 11.9 5.3 4.2 59 3.5 WNW 28 50 15 27 1009.8 1009.7 0.0
21/05:29am 11.9 5.3 4.2 59 3.5 WNW 28 50 15 27 1009.9 1009.8 0.0
21/05:00am 12.2 6.3 3.7 56 3.8 WNW 24 41 13 22 1009.5 1009.4 0.0
21/04:30am 12.2 5.7 2.4 51 4.3 WNW 26 48 14 26 1009.2 1009.1 0.0
21/04:00am 12.6 6.3 1.3 46 4.8 WNW 24 37 13 20 1008.8 1008.7 0.0
21/03:43am 13.0 5.8 1.0 44 5.1 WNW 28 46 15 25 1008.6 1008.5 0.0
21/03:30am 13.1 6.3 0.8 43 5.2 WNW 26 39 14 21 1008.4 1008.3 0.0
21/03:00am 13.5 6.2 0.2 40 5.6 W 28 43 15 23 1008.1 1008.0 0.0
21/02:35am 13.9 6.6 -0.2 38 5.9 WNW 28 48 15 26 1008.0 1007.9 0.0
21/02:30am 13.7 6.4 -0.3 38 5.8 WNW 28 41 15 22 1007.9 1007.8 0.0
21/02:07am 13.8 6.4 -0.6 37 6.0 WNW 28 56 15 30 1007.9 1007.8 0.0
21/02:00am 13.9 6.5 -0.5 37 6.0 WNW 28 41 15 22 1007.9 1007.8 0.0
21/01:42am 14.0 6.3 -0.4 37 6.0 WNW 30 52 16 28 1007.9 1007.8 0.0
21/01:30am 14.0 6.6 -0.4 37 6.0 WNW 28 44 15 24 1007.9 1007.8 0.0
21/01:00am 14.2 6.8 -0.6 36 6.2 WNW 28 46 15 25 1008.0 1007.9 0.0
21/12:34am 13.9 6.4 -1.3 35 6.2 WNW 28 46 15 25 1007.9 1007.8 0.0
21/12:30am 13.9 6.8 -1.3 35 6.2 WNW 26 39 14 21 1007.9 1007.8 0.0
21/12:00am 13.5 6.6 -2.8 32 6.4 NW 24 37 13 20 1007.9 1007.8 0.0
 
Date/Time
WST
Temp
°C
App
Temp
°C
Dew
Point
°C
Rel
Hum
%
Delta-T
°C
Wind Press
QNH
hPa
Press
MSL
hPa
Rain since
9am
mm
Dir  Spd
km/h
Gust
km/h
Spd
kts
Gust
kts
20/11:30pm 13.6 6.6 -3.2 31 6.5 NW 24 35 13 19 1007.6 1007.5 0.0
20/11:00pm 13.7 6.6 -4.0 29 6.8 NW 24 37 13 20 1008.1 1008.0 0.0
20/10:30pm 14.0 7.3 -4.2 28 7.0 NW 22 33 12 18 1008.0 1007.9 0.0
20/10:00pm 13.7 7.0 -4.0 29 6.8 NW 22 33 12 18 1008.2 1008.1 0.0
20/09:30pm 13.5 7.4 -4.2 29 6.7 NW 19 26 10 14 1008.5 1008.4 0.0
20/09:00pm 13.8 7.7 -3.9 29 6.8 NW 19 28 10 15 1008.6 1008.5 0.0
20/08:30pm 13.4 8.1 -3.8 30 6.6 NW 15 20 8 11 1008.8 1008.7 0.0
20/08:00pm 13.4 8.1 -3.8 30 6.6 NW 15 19 8 10 1008.8 1008.7 0.0
20/07:30pm 14.0 9.1 -3.7 29 6.9 NW 13 17 7 9 1008.8 1008.7 0.0
20/07:00pm 14.5 9.6 -3.8 28 7.1 NW 13 17 7 9 1008.6 1008.5 0.0
20/06:30pm 14.9 9.9 -3.9 27 7.3 WNW 13 17 7 9 1008.3 1008.2 0.0
20/06:00pm 15.5 10.5 -4.4 25 7.7 WNW 13 19 7 10 1008.0 1007.9 0.0
20/05:30pm 16.2 10.0 -4.9 23 8.2 W 19 33 10 18 1007.7 1007.6 0.0
20/05:00pm 16.9 10.1 -4.9 22 8.5 W 22 32 12 17 1007.5 1007.4 0.0
20/04:31pm 17.6 9.5 -6.3 19 9.1 W 28 48 15 26 1007.2 1007.1 0.0
20/04:30pm 17.6 9.9 -6.3 19 9.1 WNW 26 39 14 21 1007.2 1007.1 0.0
20/04:00pm 18.3 9.9 -5.7 19 9.4 W 30 48 16 26 1006.9 1006.8 0.0
20/03:30pm 18.7 10.1 -4.0 21 9.2 W 32 50 17 27 1006.7 1006.6 0.0
20/03:00pm 18.4 9.1 -5.6 19 9.4 W 35 54 19 29 1006.8 1006.7 0.0
20/02:30pm 18.8 9.6 -4.6 20 9.3 W 35 54 19 29 1006.6 1006.5 0.0
20/02:00pm 19.1 9.9 -4.4 20 9.5 W 35 56 19 30 1006.6 1006.5 0.0
20/01:30pm 19.1 9.5 -5.0 19 9.6 W 37 57 20 31 1006.5 1006.4 0.0
20/01:00pm 19.3 11.8 -1.2 25 8.9 W 28 50 15 27 1006.5 1006.4 0.0
20/12:30pm 18.3 9.3 -2.6 24 8.7 W 35 59 19 32 1006.8 1006.7 0.0
20/12:00pm 18.3 9.5 -1.0 27 8.3 W 35 59 19 32 1006.8 1006.7 0.0
20/11:30am 17.8 9.6 0.5 31 7.6 W 33 56 18 30 1006.9 1006.8 0.0
20/11:00am 17.2 8.7 0.8 33 7.2 W 35 57 19 31 1007.1 1007.0 0.0
20/10:30am 17.0 7.8 1.0 34 7.1 W 39 63 21 34 1007.3 1007.2 0.0
20/10:16am 17.1 8.8 2.3 37 6.7 W 35 61 19 33 1007.2 1007.1 0.0
20/10:03am 17.3 8.6 1.7 35 7.0 WNW 37 56 20 30 1007.2 1007.1 0.0
20/10:00am 17.4 8.4 2.2 36 6.9 WNW 39 56 21 30 1007.1 1007.0 0.0
20/09:30am 17.5 9.9 3.0 38 6.7 WNW 32 54 17 29 1006.9 1006.8 0.0
20/09:00am 16.9 9.7 5.2 46 5.6 W 32 54 17 29 1006.9 1006.8 0.0
20/08:30am 16.7 9.6 5.6 48 5.4 W 32 50 17 27 1006.7 1006.6 0.0
20/08:05am 17.3 11.4 7.4 52 5.0 W 28 46 15 25 1006.5 1006.4 0.0
20/08:00am 17.0 11.3 6.5 50 5.2 W 26 43 14 23 1006.4 1006.3 0.0
20/07:30am 15.4 11.7 9.5 68 3.1 WSW 19 35 10 19 1006.4 1006.3 0.0
20/07:00am 14.3 9.9 10.5 78 2.0 WSW 24 37 13 20 1006.4 1006.3 0.0
20/06:30am 15.1 11.6 10.9 76 2.2 W 20 30 11 16 1005.3 1005.2 0.0
20/06:00am 14.4 11.7 10.2 76 2.2 W 15 20 8 11 1004.5 1004.4 0.0
20/05:30am 14.1 11.5 9.5 74 2.4 WNW 13 19 7 10 1003.9 1003.8 0.0
20/05:00am 14.8 12.2 9.4 70 2.8 WNW 13 19 7 10 1003.4 1003.3 0.0
20/04:30am 15.1 12.8 10.3 73 2.5 W 13 24 7 13 1003.1 1003.0 0.0
20/04:00am 14.9 12.0 11.1 78 2.0 WSW 17 28 9 15 1002.6 1002.5 0.0
20/03:30am 14.5 11.8 11.7 83 1.5 WSW 17 26 9 14 1002.3 1002.2 0.0
20/03:00am 14.8 11.6 11.8 82 1.6 WSW 20 32 11 17 1001.9 1001.8 0.0
20/02:30am 15.2 11.0 11.2 77 2.1 WSW 24 37 13 20 1001.5 1001.4 0.0
20/02:00am 15.1 10.2 10.1 72 2.6 WSW 26 44 14 24 1001.2 1001.1 0.0
20/01:30am 14.8 10.9 8.5 66 3.2 WNW 19 32 10 17 1001.1 1001.0 0.0
20/01:00am 14.4 9.8 8.1 66 3.2 NNW 22 30 12 16 1000.7 1000.6 0.0
20/12:30am 13.5 9.4 8.8 73 2.4 NNW 20 28 11 15 1000.8 1000.7 0.0
20/12:00am 14.7 10.7 8.9 68 3.0 N 20 28 11 15 1000.8 1000.7 0.0
 
Date/Time
WST
Temp
°C
App
Temp
°C
Dew
Point
°C
Rel
Hum
%
Delta-T
°C
Wind Press
QNH
hPa
Press
MSL
hPa
Rain since
9am
mm
Dir  Spd
km/h
Gust
km/h
Spd
kts
Gust
kts
19/11:30pm 15.0 11.0 9.1 68 3.0 N 20 30 11 16 1000.6 1000.5 0.0
19/11:00pm 15.0 11.1 9.4 69 2.9 NNE 20 28 11 15 1000.6 1000.5 0.0
19/10:30pm 15.1 11.4 10.1 72 2.6 NNE 20 28 11 15 1000.9 1000.8 0.0
19/10:00pm 15.4 11.9 10.8 74 2.5 NE 20 28 11 15 1001.5 1001.4 0.0
19/09:30pm 15.5 12.6 11.1 75 2.4 NE 17 24 9 13 1002.2 1002.1 0.0
19/09:00pm 15.5 12.7 11.3 76 2.3 NE 17 28 9 15 1002.6 1002.5 0.0
19/08:30pm 15.3 12.9 11.3 77 2.2 NE 15 22 8 12 1003.3 1003.2 0.0
19/08:00pm 15.1 12.7 11.3 78 2.0 NE 15 19 8 10 1003.9 1003.8 0.0
19/07:30pm 15.3 13.3 11.5 78 2.1 NE 13 15 7 8 1004.5 1004.4 0.0
19/07:00pm 15.3 13.4 11.9 80 1.9 ENE 13 17 7 9 1004.8 1004.7 0.0
19/06:30pm 15.5 14.0 11.9 79 2.0 ENE 11 13 6 7 1005.0 1004.9 0.0
19/06:00pm 16.2 15.2 12.2 77 2.2 ENE 9 11 5 6 1004.9 1004.8 0.0
19/05:30pm 17.2 16.1 12.1 72 2.8 E 9 13 5 7 1004.6 1004.5 0.0
19/05:00pm 17.7 16.4 12.6 72 2.9 SE 11 15 6 8 1004.4 1004.3 0.0
19/04:30pm 21.6 19.8 12.2 55 5.3 W 13 22 7 12 1004.1 1004.0 0.0
19/04:00pm 23.8 20.1 7.8 36 8.5 WNW 17 28 9 15 1003.9 1003.8 0.0
19/03:30pm 23.9 20.3 9.9 41 7.7 W 19 26 10 14 1003.9 1003.8 0.0
19/03:00pm 23.8 20.3 10.1 42 7.6 W 19 30 10 16 1003.8 1003.7 0.0
19/02:30pm 23.4 19.7 11.5 47 6.7 W 22 30 12 16 1004.1 1004.0 0.0
19/02:00pm 23.4 20.2 11.8 48 6.6 WNW 20 30 11 16 1004.4 1004.3 0.0
19/01:30pm 23.0 19.1 12.0 50 6.2 WNW 24 35 13 19 1004.9 1004.8 0.0
19/01:00pm 21.4 18.4 12.5 57 5.1 WNW 20 33 11 18 1005.2 1005.1 0.0
19/12:30pm 21.6 18.1 13.5 60 4.7 WNW 24 35 13 19 1005.5 1005.4 0.0
19/12:00pm 19.7 16.5 12.0 61 4.3 WNW 20 32 11 17 1006.0 1005.9 0.0
19/11:30am 19.4 15.7 12.7 65 3.8 WNW 24 37 13 20 1006.4 1006.3 0.0
19/11:00am 17.8 14.1 12.7 72 2.9 WNW 24 33 13 18 1007.0 1006.9 0.0
19/10:30am 17.3 14.3 12.6 74 2.6 WNW 20 32 11 17 1007.3 1007.2 0.0
19/10:00am 16.5 13.5 12.7 78 2.1 NW 20 32 11 17 1007.5 1007.4 0.0

Other formats

Comma delimited format used in spreadsheet applications
http://www.bom.gov.au/fwo/IDW60801/IDW60801.94647.axf

JavaScript Object Notation format (JSON) in row-major order
http://www.bom.gov.au/fwo/IDW60801/IDW60801.94647.json

Data quality

Most of these data are generated automatically and are frequently updated. Quality checks on data are not normally performed. It is possible for incorrect values to appear. Refer to information at About Latest Weather Observations and please check the disclaimer before using these data.